createdAt,value
2023-01-01T00:00:32.626Z,99828.06
2023-01-01T00:03:01.071Z,99833.56
2023-01-01T00:05:29.554Z,99839.31
2023-01-01T00:08:04.240Z,99835.94
2023-01-01T00:10:34.173Z,99838.69
2023-01-01T00:13:02.775Z,99845.28
2023-01-01T00:15:35.176Z,99847.44
2023-01-01T00:18:03.664Z,99841.94
2023-01-01T00:20:35.365Z,99840.28
2023-01-01T00:23:05.597Z,99841.94
2023-01-01T00:25:34.100Z,99839.53
2023-01-01T00:28:03.143Z,99831.88
2023-01-01T00:30:32.952Z,99829.13
2023-01-01T00:33:01.374Z,99827.25
2023-01-01T00:35:29.916Z,99820.09
2023-01-01T00:37:58.397Z,99824.75
2023-01-01T00:40:26.862Z,99833.47
2023-01-01T00:42:55.348Z,99847.19
2023-01-01T00:45:23.971Z,99844.69
2023-01-01T00:47:55.345Z,99845.75
2023-01-01T00:50:24.847Z,99834.78
2023-01-01T00:52:53.309Z,99833.94
2023-01-01T00:55:21.966Z,99822.97
2023-01-01T00:57:50.437Z,99813.44
2023-01-01T01:00:20.356Z,99819.75
2023-01-01T01:02:49.029Z,99832.41
2023-01-01T01:05:19.270Z,99845.00
2023-01-01T01:07:47.773Z,99846.91
2023-01-01T01:10:17.046Z,99845.00
2023-01-01T01:12:45.559Z,99850.50
2023-01-01T01:15:14.284Z,99849.66
2023-01-01T01:17:42.764Z,99847.19
2023-01-01T01:20:12.872Z,99851.81
2023-01-01T01:22:42.720Z,99843.84
2023-01-01T01:25:11.909Z,99841.38
2023-01-01T01:27:40.356Z,99839.94
2023-01-01T01:30:10.705Z,99846.75
2023-01-01T01:32:39.235Z,99843.44
2023-01-01T01:35:08.810Z,99827.47
2023-01-01T01:37:37.353Z,99829.63
2023-01-01T01:40:09.454Z,99816.38
2023-01-01T01:42:37.959Z,99823.78
2023-01-01T01:45:11.600Z,99824.28
2023-01-01T01:47:47.963Z,99823.44
2023-01-01T01:50:23.505Z,99820.13
2023-01-01T01:53:04.389Z,99817.59
2023-01-01T01:55:38.735Z,99818.69
2023-01-01T01:58:09.266Z,99814.88
2023-01-01T02:00:38.174Z,99806.91
2023-01-01T02:03:09.571Z,99809.63
2023-01-01T02:05:40.341Z,99806.06
2023-01-01T02:08:09.954Z,99807.16
2023-01-01T02:10:40.218Z,99802.75
2023-01-01T02:13:08.956Z,99813.97
2023-01-01T02:15:45.637Z,99816.13
2023-01-01T02:18:19.427Z,99812.53
2023-01-01T02:20:55.553Z,99815.53
2023-01-01T02:24:16.400Z,99816.50
2023-01-01T02:26:55.771Z,99821.97
2023-01-01T02:29:45.615Z,99811.50
2023-01-01T02:32:21.233Z,99811.25
2023-01-01T02:34:54.802Z,99822.47
2023-01-01T02:37:25.565Z,99831.75
2023-01-01T02:39:59.680Z,99824.03
2023-01-01T02:42:30.559Z,99816.88
2023-01-01T02:45:01.354Z,99822.59
2023-01-01T02:47:29.834Z,99819.28
2023-01-01T02:50:07.383Z,99815.09
2023-01-01T02:52:57.418Z,99815.34
2023-01-01T02:55:38.210Z,99826.56
2023-01-01T02:58:35.383Z,99847.06
2023-01-01T03:01:13.811Z,99856.34
2023-01-01T03:03:50.937Z,99863.72
2023-01-01T03:06:33.591Z,99868.59
2023-01-01T03:09:13.661Z,99869.44
2023-01-01T03:11:53.728Z,99877.94
2023-01-01T03:14:30.234Z,99869.94
2023-01-01T03:17:07.797Z,99889.34
2023-01-01T03:19:40.535Z,99889.81
2023-01-01T03:22:12.142Z,99888.19
2023-01-01T03:24:44.624Z,99882.91
2023-01-01T03:27:18.059Z,99893.28
2023-01-01T03:29:49.026Z,99891.03
2023-01-01T03:32:46.491Z,99902.22
2023-01-01T03:35:17.049Z,99886.28
2023-01-01T03:37:50.226Z,99887.34
2023-01-01T03:40:21.874Z,99897.72
2023-01-01T03:42:56.275Z,99905.94
2023-01-01T03:45:30.664Z,99923.66
2023-01-01T03:48:02.074Z,99922.81
2023-01-01T03:50:42.097Z,99919.50
2023-01-01T03:53:20.463Z,99920.59
2023-01-01T03:55:53.567Z,99917.00
2023-01-01T03:58:32.797Z,99919.97
2023-01-01T04:01:07.828Z,99924.63
2023-01-01T04:03:39.170Z,99915.56
2023-01-01T04:06:08.817Z,99907.38
2023-01-01T04:08:37.833Z,99900.78
2023-01-01T04:11:28.952Z,99902.72
2023-01-01T04:13:57.436Z,99898.31
2023-01-01T04:16:25.968Z,99903.53
2023-01-01T04:18:55.814Z,99902.47
2023-01-01T04:21:24.256Z,99918.91
2023-01-01T04:23:52.893Z,99924.13
2023-01-01T04:26:21.353Z,99922.22
2023-01-01T04:28:49.789Z,99920.34
2023-01-01T04:31:18.205Z,99914.84
2023-01-01T04:33:46.629Z,99915.44
2023-01-01T04:36:16.424Z,99916.50
2023-01-01T04:38:44.840Z,99916.28
2023-01-01T04:41:13.227Z,99920.69
2023-01-01T04:43:41.648Z,99917.72
2023-01-01T04:46:11.056Z,99917.13
2023-01-01T04:48:39.555Z,99917.13
2023-01-01T04:51:08.176Z,99917.94
2023-01-01T04:53:38.088Z,99923.41
2023-01-01T04:56:07.607Z,99930.56
2023-01-01T04:58:37.599Z,99923.19
2023-01-01T05:01:07.144Z,99923.19
2023-01-01T05:03:35.852Z,99928.44
2023-01-01T05:06:07.275Z,99922.94
2023-01-01T05:08:40.255Z,99929.25
2023-01-01T05:11:12.073Z,99931.16
2023-01-01T05:13:43.528Z,99929.25
2023-01-01T05:16:14.689Z,99937.47
2023-01-01T05:18:44.103Z,99945.69
2023-01-01T05:21:16.761Z,99948.19
2023-01-01T05:23:46.790Z,99950.72
2023-01-01T05:26:17.780Z,99950.47
2023-01-01T05:28:46.911Z,99956.53
2023-01-01T05:31:18.269Z,99963.44
2023-01-01T05:33:46.784Z,99964.03
2023-01-01T05:36:18.913Z,99963.78
2023-01-01T05:38:48.977Z,99958.91
2023-01-01T05:41:20.261Z,99964.41
2023-01-01T05:43:49.220Z,99971.28
2023-01-01T05:46:21.223Z,99969.16
2023-01-01T05:48:50.369Z,99970.56
2023-01-01T05:51:22.109Z,99972.25
2023-01-01T05:53:52.712Z,99969.25
2023-01-01T05:56:21.407Z,99962.72
2023-01-01T05:58:49.860Z,99971.53
2023-01-01T06:01:21.535Z,99975.09
2023-01-01T06:03:50.745Z,99982.22
2023-01-01T06:06:21.837Z,99980.59
2023-01-01T06:08:56.901Z,99981.41
2023-01-01T06:11:25.797Z,99977.59
2023-01-01T06:13:55.260Z,99976.75
2023-01-01T06:16:24.424Z,99977.00
2023-01-01T06:18:53.523Z,99993.44
2023-01-01T06:21:25.258Z,100007.97
2023-01-01T06:23:58.001Z,100006.31
2023-01-01T06:26:29.628Z,100010.94
2023-01-01T06:28:59.205Z,100008.19
2023-01-01T06:31:28.822Z,100006.31
2023-01-01T06:33:57.574Z,99994.28
2023-01-01T06:36:27.173Z,99999.75
2023-01-01T06:38:58.687Z,100004.66
2023-01-01T06:41:29.505Z,100015.59
2023-01-01T06:43:58.919Z,100026.56
2023-01-01T06:46:30.351Z,100012.88
2023-01-01T06:49:00.264Z,99994.75
2023-01-01T06:51:31.377Z,99981.06
2023-01-01T06:54:03.301Z,99988.44
2023-01-01T06:56:32.379Z,100005.72
2023-01-01T06:59:01.252Z,100015.81
2023-01-01T07:01:31.968Z,100024.88
2023-01-01T07:04:02.913Z,100027.63
2023-01-01T07:06:33.799Z,100030.63
2023-01-01T07:09:03.792Z,100028.72
2023-01-01T07:11:32.559Z,100036.94
2023-01-01T07:14:01.080Z,100033.34
2023-01-01T07:16:29.805Z,100038.59
2023-01-01T07:18:58.485Z,100045.16
2023-01-01T07:21:31.582Z,100039.44
2023-01-01T07:24:03.753Z,100043.81
2023-01-01T07:26:34.207Z,100052.66
2023-01-01T07:29:07.349Z,100067.78
2023-01-01T07:31:36.967Z,100068.38
2023-01-01T07:34:05.773Z,100071.72
2023-01-01T07:36:34.461Z,100075.66
2023-01-01T07:39:04.257Z,100079.81
2023-01-01T07:41:32.698Z,100078.25
2023-01-01T07:44:01.339Z,100098.63
2023-01-01T07:46:30.313Z,100087.19
2023-01-01T07:48:58.843Z,100090.31
2023-01-01T07:51:27.803Z,100087.34
2023-01-01T07:54:00.679Z,100087.34
2023-01-01T07:56:34.751Z,100090.91
2023-01-01T07:59:03.347Z,100097.19
2023-01-01T08:01:31.926Z,100099.94
2023-01-01T08:04:00.451Z,100105.22
2023-01-01T08:06:28.893Z,100103.91
2023-01-01T08:08:57.438Z,100106.16
2023-01-01T08:11:25.865Z,100095.19
2023-01-01T08:13:55.653Z,100100.19
2023-01-01T08:16:24.166Z,100104.13
2023-01-01T08:18:52.643Z,100113.78
2023-01-01T08:21:21.029Z,100111.88
2023-01-01T08:23:49.411Z,100109.97
2023-01-01T08:26:19.643Z,100112.72
2023-01-01T08:28:52.134Z,100106.38
2023-01-01T08:31:26.942Z,100104.50
2023-01-01T08:33:55.453Z,100098.75
2023-01-01T08:36:24.084Z,100108.66
2023-01-01T08:38:52.511Z,100116.16
2023-01-01T08:41:20.974Z,100105.53
2023-01-01T08:43:49.363Z,100103.75
2023-01-01T08:46:17.926Z,100108.28
2023-01-01T08:48:47.743Z,100111.72
2023-01-01T08:51:16.238Z,100108.84
2023-01-01T08:53:50.635Z,100092.25
2023-01-01T08:56:20.477Z,100094.88
2023-01-01T08:58:49.495Z,100105.94
2023-01-01T09:01:21.620Z,100106.28
2023-01-01T09:03:51.693Z,100107.03
2023-01-01T09:06:20.234Z,100106.63
2023-01-01T09:08:48.771Z,100135.63
2023-01-01T09:11:25.283Z,100135.00
2023-01-01T09:13:54.050Z,100129.44
2023-01-01T09:16:23.768Z,100123.06
2023-01-01T09:18:53.653Z,100126.81
2023-01-01T09:21:22.459Z,100128.94
2023-01-01T09:23:50.957Z,100133.50
2023-01-01T09:26:19.370Z,100132.13
2023-01-01T09:28:47.785Z,100135.63
2023-01-01T09:31:16.247Z,100150.13
2023-01-01T09:33:44.759Z,100137.38
2023-01-01T09:36:16.586Z,100135.88
2023-01-01T09:38:49.406Z,100144.41
2023-01-01T09:41:27.201Z,100150.09
2023-01-01T09:44:05.678Z,100139.06
2023-01-01T09:46:34.277Z,100140.34
2023-01-01T09:49:08.064Z,100145.47
2023-01-01T09:51:49.947Z,100139.56
2023-01-01T09:54:30.016Z,100129.00
2023-01-01T09:57:01.417Z,100130.22
2023-01-01T09:59:31.131Z,100133.16
2023-01-01T10:02:11.860Z,100127.75
2023-01-01T10:04:59.072Z,100130.06
2023-01-01T10:07:37.082Z,100123.59
2023-01-01T10:10:22.207Z,100112.94
2023-01-01T10:13:00.652Z,100115.56
2023-01-01T10:15:35.052Z,100117.84
2023-01-01T10:18:15.049Z,100114.09
2023-01-01T10:20:49.951Z,100110.34
2023-01-01T10:23:26.118Z,100104.91
2023-01-01T10:25:58.336Z,100113.00
2023-01-01T10:28:34.116Z,100102.50
2023-01-01T10:31:17.119Z,100106.16
2023-01-01T10:33:47.536Z,100111.16
2023-01-01T10:36:20.626Z,100119.19
2023-01-01T10:38:52.023Z,100125.28
2023-01-01T10:41:20.487Z,100108.72
2023-01-01T10:43:49.566Z,100114.78
2023-01-01T10:46:29.571Z,100114.81
2023-01-01T10:49:12.647Z,100124.78
2023-01-01T10:51:47.105Z,100104.09
2023-01-01T10:54:36.477Z,100107.41
2023-01-01T10:57:16.904Z,100100.47
2023-01-01T10:59:53.502Z,100099.06
2023-01-01T11:02:25.646Z,100104.84
2023-01-01T11:05:14.980Z,100100.06
2023-01-01T11:07:46.823Z,100102.50
2023-01-01T11:10:22.185Z,100095.78
2023-01-01T11:13:08.665Z,100095.16
2023-01-01T11:15:41.420Z,100090.16
2023-01-01T11:18:15.285Z,100082.91
2023-01-01T11:20:44.073Z,100078.97
2023-01-01T11:23:33.234Z,100079.03
2023-01-01T11:26:08.206Z,100075.53
2023-01-01T11:28:37.663Z,100081.72
2023-01-01T11:31:18.729Z,100077.97
2023-01-01T11:33:51.373Z,100079.38
2023-01-01T11:36:25.578Z,100085.78
2023-01-01T11:39:14.384Z,100086.88
2023-01-01T11:41:47.969Z,100074.00
2023-01-01T11:44:31.351Z,100069.06
2023-01-01T11:47:00.431Z,100073.16
2023-01-01T11:49:31.738Z,100065.81
2023-01-01T11:52:00.685Z,100069.41
2023-01-01T11:54:36.012Z,100066.41
2023-01-01T11:57:13.348Z,100064.59
2023-01-01T11:59:50.757Z,100059.16
2023-01-01T12:02:31.671Z,100057.56
2023-01-01T12:05:11.801Z,100059.44
2023-01-01T12:07:42.582Z,100049.63
2023-01-01T12:10:21.605Z,100056.75
2023-01-01T12:12:58.831Z,100053.25
2023-01-01T12:15:33.572Z,100047.34
2023-01-01T12:18:12.459Z,100045.75
2023-01-01T12:20:46.813Z,100046.34
2023-01-01T12:23:18.192Z,100039.06
2023-01-01T12:25:57.107Z,100042.94
2023-01-01T12:28:39.900Z,100048.38
2023-01-01T12:31:19.686Z,100036.97
2023-01-01T12:34:11.811Z,100038.06
2023-01-01T12:36:50.363Z,100037.50
2023-01-01T12:40:16.085Z,100040.47
2023-01-01T12:43:01.640Z,100039.09
2023-01-01T12:46:13.865Z,100036.91
2023-01-01T12:49:37.147Z,100042.50
2023-01-01T12:52:27.013Z,100041.53
2023-01-01T12:55:44.318Z,100036.78
2023-01-01T12:58:18.981Z,100034.56
2023-01-01T13:00:57.189Z,100045.19
2023-01-01T13:03:30.655Z,100043.56
2023-01-01T13:06:01.628Z,100044.09
2023-01-01T13:08:30.086Z,100051.72
2023-01-01T13:11:01.273Z,100043.50
2023-01-01T13:13:29.828Z,100047.56
2023-01-01T13:15:59.920Z,100053.72
2023-01-01T13:18:33.546Z,100051.34
2023-01-01T13:21:08.854Z,100049.44
2023-01-01T13:23:48.676Z,100050.59
2023-01-01T13:26:42.856Z,100052.84
2023-01-01T13:29:43.491Z,100058.72
2023-01-01T13:32:15.321Z,100061.47
2023-01-01T13:35:03.469Z,100062.59
2023-01-01T13:37:49.128Z,100064.53
2023-01-01T13:40:58.893Z,100062.31
2023-01-01T13:43:33.485Z,100059.00
2023-01-01T13:46:14.260Z,100058.69
2023-01-01T13:49:21.743Z,100066.41
2023-01-01T13:52:26.649Z,100066.69
2023-01-01T13:55:51.399Z,100064.72
2023-01-01T13:59:26.304Z,100070.25
2023-01-01T14:02:02.910Z,100073.56
2023-01-01T14:04:43.938Z,100076.28
2023-01-01T14:07:52.864Z,100086.78
2023-01-01T14:10:28.999Z,100090.63
2023-01-01T14:13:15.102Z,100096.97
2023-01-01T14:15:55.061Z,100097.22
2023-01-01T14:18:32.559Z,100094.44
2023-01-01T14:21:02.772Z,100098.84
2023-01-01T14:23:35.052Z,100103.22
2023-01-01T14:26:09.786Z,100096.56
2023-01-01T14:28:39.152Z,100098.22
2023-01-01T14:31:20.457Z,100113.91
2023-01-01T14:33:49.897Z,100112.75
2023-01-01T14:36:24.541Z,100113.00
2023-01-01T14:38:54.965Z,100120.97
2023-01-01T14:41:29.253Z,100112.09
2023-01-01T14:44:04.538Z,100116.78
2023-01-01T14:46:33.725Z,100113.97
2023-01-01T14:49:09.471Z,100114.22
2023-01-01T14:51:44.837Z,100120.53
2023-01-01T14:54:20.716Z,100134.78
2023-01-01T14:56:51.203Z,100132.56
2023-01-01T14:59:26.400Z,100131.13
2023-01-01T15:02:03.546Z,100126.91
2023-01-01T15:04:32.378Z,100132.94
2023-01-01T15:07:02.935Z,100130.41
2023-01-01T15:09:33.567Z,100131.47
2023-01-01T15:12:02.690Z,100126.19
2023-01-01T15:14:34.789Z,100129.97
2023-01-01T15:17:05.149Z,100136.25
2023-01-01T15:19:34.990Z,100130.72
2023-01-01T15:22:11.838Z,100135.34
2023-01-01T15:24:40.997Z,100142.44
2023-01-01T15:27:22.216Z,100139.63
2023-01-01T15:29:51.539Z,100149.50
2023-01-01T15:32:28.452Z,100154.09
2023-01-01T15:34:59.949Z,100153.81
2023-01-01T15:37:38.079Z,100154.56
2023-01-01T15:40:35.946Z,100153.09
2023-01-01T15:43:22.401Z,100146.44
2023-01-01T15:45:58.293Z,100149.72
2023-01-01T15:48:37.609Z,100152.38
2023-01-01T15:51:18.068Z,100151.47
2023-01-01T15:53:57.846Z,100153.09
2023-01-01T15:56:29.582Z,100149.19
2023-01-01T15:59:08.770Z,100150.78
2023-01-01T16:01:41.752Z,100146.06
2023-01-01T16:04:19.556Z,100153.13
2023-01-01T16:06:55.488Z,100153.91
2023-01-01T16:09:25.459Z,100162.91
2023-01-01T16:11:55.991Z,100167.28
2023-01-01T16:14:24.600Z,100165.03
2023-01-01T16:16:57.447Z,100164.97
2023-01-01T16:19:26.697Z,100168.22
2023-01-01T16:21:55.164Z,100177.22
2023-01-01T16:24:25.264Z,100182.66
2023-01-01T16:26:53.833Z,100170.50
2023-01-01T16:29:22.324Z,100171.25
2023-01-01T16:31:52.971Z,100174.75
2023-01-01T16:34:21.597Z,100171.66
2023-01-01T16:36:50.086Z,100173.25
2023-01-01T16:39:18.591Z,100174.53
2023-01-01T16:41:48.445Z,100176.13
2023-01-01T16:44:17.680Z,100181.06
2023-01-01T16:46:46.315Z,100183.47
2023-01-01T16:49:14.915Z,100188.38
2023-01-01T16:51:44.256Z,100185.53
2023-01-01T16:54:13.202Z,100191.56
2023-01-01T16:56:41.641Z,100190.13
2023-01-01T16:59:11.576Z,100203.28
2023-01-01T17:01:40.220Z,100198.28
2023-01-01T17:04:09.071Z,100204.84
2023-01-01T17:06:39.874Z,100196.88
2023-01-01T17:09:09.147Z,100206.22
2023-01-01T17:11:39.391Z,100210.28
2023-01-01T17:14:08.542Z,100210.50
2023-01-01T17:16:39.887Z,100214.59
2023-01-01T17:19:14.923Z,100219.28
2023-01-01T17:21:45.898Z,100218.91
2023-01-01T17:24:15.101Z,100209.25
2023-01-01T17:26:43.667Z,100210.56
2023-01-01T17:29:12.608Z,100210.00
2023-01-01T17:31:44.009Z,100216.81
2023-01-01T17:34:14.716Z,100211.81
2023-01-01T17:36:45.330Z,100213.97
2023-01-01T17:39:15.687Z,100214.22
2023-01-01T17:41:45.780Z,100221.88
2023-01-01T17:44:14.428Z,100216.63
2023-01-01T17:46:44.856Z,100212.19
2023-01-01T17:49:15.583Z,100209.44
2023-01-01T17:51:44.042Z,100205.06
2023-01-01T17:54:13.828Z,100202.53
2023-01-01T17:56:43.225Z,100206.38
2023-01-01T17:59:12.533Z,100211.88
2023-01-01T18:01:42.275Z,100210.78
2023-01-01T18:04:12.673Z,100213.03
2023-01-01T18:06:44.257Z,100206.22
2023-01-01T18:09:16.508Z,100215.91
2023-01-01T18:11:45.514Z,100206.91
2023-01-01T18:14:19.589Z,100204.84
2023-01-01T18:16:52.369Z,100212.09
2023-01-01T18:19:22.959Z,100215.78
2023-01-01T18:21:52.207Z,100212.03
2023-01-01T18:24:21.601Z,100215.47
2023-01-01T18:26:50.244Z,100208.72
2023-01-01T18:29:19.261Z,100209.41
2023-01-01T18:31:48.956Z,100208.88
2023-01-01T18:34:17.957Z,100206.47
2023-01-01T18:36:47.864Z,100206.00
2023-01-01T18:39:22.973Z,100212.34
2023-01-01T18:42:10.181Z,100206.00
2023-01-01T18:44:39.168Z,100205.50
2023-01-01T18:47:17.590Z,100201.69
2023-01-01T18:49:50.678Z,100206.94
2023-01-01T18:52:27.247Z,100205.25
2023-01-01T18:55:15.084Z,100211.00
2023-01-01T18:57:47.278Z,100206.59
2023-01-01T19:00:22.852Z,100207.09
2023-01-01T19:03:00.074Z,100201.47
2023-01-01T19:05:33.355Z,100196.13
2023-01-01T19:08:16.104Z,100194.41
2023-01-01T19:10:51.858Z,100200.28
2023-01-01T19:13:24.321Z,100198.53
2023-01-01T19:15:59.043Z,100205.00
2023-01-01T19:18:32.319Z,100203.00
2023-01-01T19:21:21.202Z,100200.69
2023-01-01T19:23:56.586Z,100199.25
2023-01-01T19:26:29.910Z,100193.66
2023-01-01T19:29:03.780Z,100185.31
2023-01-01T19:31:32.423Z,100194.28
2023-01-01T19:34:01.054Z,100196.94
2023-01-01T19:36:30.271Z,100199.59
2023-01-01T19:39:00.932Z,100199.50
2023-01-01T19:41:29.417Z,100195.56
2023-01-01T19:43:58.005Z,100183.38
2023-01-01T19:46:26.626Z,100195.69
2023-01-01T19:48:55.431Z,100198.97
2023-01-01T19:51:24.910Z,100195.84
2023-01-01T19:53:56.653Z,100197.16
2023-01-01T19:56:27.646Z,100202.06
2023-01-01T19:58:58.123Z,100190.25
2023-01-01T20:01:28.151Z,100194.94
2023-01-01T20:03:59.355Z,100188.09
2023-01-01T20:06:31.051Z,100190.13
2023-01-01T20:09:06.337Z,100181.16
2023-01-01T20:11:38.261Z,100182.91
2023-01-01T20:14:08.530Z,100183.59
2023-01-01T20:16:40.862Z,100174.72
2023-01-01T20:19:11.881Z,100177.91
2023-01-01T20:21:59.178Z,100181.06
2023-01-01T20:24:31.904Z,100181.53
2023-01-01T20:27:03.627Z,100184.13
2023-01-01T20:29:44.360Z,100172.97
2023-01-01T20:32:16.127Z,100179.63
2023-01-01T20:34:46.440Z,100180.19
2023-01-01T20:37:33.306Z,100179.97
2023-01-01T20:40:03.485Z,100187.69
2023-01-01T20:42:35.265Z,100183.41
2023-01-01T20:45:05.719Z,100185.41
2023-01-01T20:47:37.127Z,100184.66
2023-01-01T20:50:10.180Z,100177.28
2023-01-01T20:52:42.062Z,100186.25
2023-01-01T20:55:15.311Z,100180.00
2023-01-01T20:57:46.558Z,100188.59
2023-01-01T21:00:17.650Z,100180.66
2023-01-01T21:02:49.302Z,100185.66
2023-01-01T21:05:19.604Z,100182.38
2023-01-01T21:07:49.861Z,100186.56
2023-01-01T21:10:20.168Z,100181.63
2023-01-01T21:12:55.512Z,100189.66
2023-01-01T21:15:25.164Z,100181.13
2023-01-01T21:17:56.876Z,100184.25
2023-01-01T21:20:38.771Z,100180.66
2023-01-01T21:23:15.325Z,100181.22
2023-01-01T21:25:51.683Z,100170.78
2023-01-01T21:28:22.729Z,100173.53
2023-01-01T21:30:54.228Z,100178.22
2023-01-01T21:33:28.205Z,100181.22
2023-01-01T21:35:56.956Z,100180.97
2023-01-01T21:38:27.827Z,100180.47
2023-01-01T21:40:58.829Z,100181.88
2023-01-01T21:43:35.333Z,100176.38
2023-01-01T21:46:35.076Z,100173.03
2023-01-01T21:49:14.367Z,100159.00
2023-01-01T21:51:50.893Z,100170.28
2023-01-01T21:54:26.209Z,100173.28
2023-01-01T21:57:00.894Z,100164.44
2023-01-01T21:59:39.659Z,100161.38
2023-01-01T22:02:39.623Z,100159.38
2023-01-01T22:05:31.307Z,100159.63
2023-01-01T22:08:00.264Z,100164.88
2023-01-01T22:10:35.837Z,100163.22
2023-01-01T22:13:14.690Z,100161.28
2023-01-01T22:15:47.108Z,100153.88
2023-01-01T22:18:27.065Z,100152.78
2023-01-01T22:20:56.623Z,100149.53
2023-01-01T22:23:47.679Z,100149.53
2023-01-01T22:26:20.549Z,100152.63
2023-01-01T22:28:56.828Z,100161.69
2023-01-01T22:31:33.414Z,100165.28
2023-01-01T22:34:06.697Z,100162.53
2023-01-01T22:36:36.823Z,100164.44
2023-01-01T22:39:21.946Z,100161.94
2023-01-01T22:41:51.411Z,100151.78
2023-01-01T22:44:19.956Z,100150.09
2023-01-01T22:46:50.227Z,100147.63
2023-01-01T22:49:23.392Z,100145.94
2023-01-01T22:51:56.279Z,100149.53
2023-01-01T22:54:24.790Z,100149.53
2023-01-01T22:56:53.205Z,100149.53
2023-01-01T22:59:21.774Z,100145.94
2023-01-01T23:01:51.664Z,100154.47
2023-01-01T23:04:20.235Z,100148.94
2023-01-01T23:06:48.863Z,100145.63
2023-01-01T23:09:17.380Z,100134.03
2023-01-01T23:11:45.999Z,100126.28
2023-01-01T23:14:36.928Z,100122.13
2023-01-01T23:17:09.320Z,100115.47
2023-01-01T23:19:37.848Z,100128.63
2023-01-01T23:22:06.491Z,100127.81
2023-01-01T23:24:35.624Z,100138.22
2023-01-01T23:27:04.919Z,100134.06
2023-01-01T23:29:34.612Z,100122.72
2023-01-01T23:32:04.413Z,100122.13
2023-01-01T23:34:34.895Z,100121.81
2023-01-01T23:37:03.406Z,100122.66
2023-01-01T23:39:31.883Z,100119.34
2023-01-01T23:42:00.577Z,100115.72
2023-01-01T23:44:29.167Z,100101.38
2023-01-01T23:47:00.349Z,100095.03
2023-01-01T23:49:29.701Z,100083.69
2023-01-01T23:52:00.472Z,100091.13
2023-01-01T23:54:28.955Z,100079.28
2023-01-01T23:56:57.383Z,100088.13
2023-01-01T23:59:25.881Z,100075.22
